Lakeside, Ohio
Current Conditions -  °F | °C
As of 11:32 PM on Friday 24 Oct 2014 (Local Time) from KPCW Reporting Station
Broken Clouds Broken Clouds  
Wind Chill: 52°   Ceiling: 4700
Heat Index: 52°   Visibility: 10mi
Dew Point: 46°   Wind: 0mph
Humidity: 82%   Direction: NA
Pressure: 29.97"   Gusts: NA
Location:  41.5249°N, 82.7767°W
Report Text: KPCW 250332Z AUTO 00000KT 10SM BKN047 11/08 A2997 RMK AO2 $
Loading
Personal Weather Stations






























Interactive Weather Map
Tropical Storm Tracking
New forecast layout! Learn more

10-Day Weather Forecast

Advertisements
Track Severe Weather on mobile